Terminal Aerodrome Forecast
Issued by NWS Central Illinois

Home | Current Version | Previous Version | Text Only | Print | Product List | Glossary On
Versions: 1 2 3 4 5 6 7 8 9 10 11 12 13 14 15 16 17 18 19 20 21 22
000
FTUS43 KILX 031138
TAFSPI
TAF
KSPI 031138Z 0312/0412 18011KT P6SM SCT100
     FM031600 20015G22KT P6SM SCT250
     FM040000 18011KT P6SM SCT250
     FM040500 18010KT P6SM VCSH BKN060=

USA.gov is the U.S. government's official web portal to all federal, state and local government web resources and services.